createdAt,value
2022-11-03T00:02:03.589Z,3.63
2022-11-03T00:04:30.272Z,3.40
2022-11-03T00:06:57.206Z,4.57
2022-11-03T00:09:27.152Z,3.83
2022-11-03T00:11:54.007Z,3.57
2022-11-03T00:14:20.968Z,3.70
2022-11-03T00:16:47.594Z,3.40
2022-11-03T00:19:16.365Z,3.00
2022-11-03T00:21:43.912Z,3.33
2022-11-03T00:24:11.711Z,3.60
2022-11-03T00:26:38.659Z,3.10
2022-11-03T00:29:13.553Z,3.33
2022-11-03T00:31:42.465Z,3.83
2022-11-03T00:34:09.669Z,3.77
2022-11-03T00:36:41.679Z,3.47
2022-11-03T00:39:08.736Z,4.00
2022-11-03T00:41:35.695Z,3.30
2022-11-03T00:44:02.462Z,3.73
2022-11-03T00:46:30.560Z,3.13
2022-11-03T00:48:57.246Z,3.63
2022-11-03T00:51:30.211Z,3.70
2022-11-03T00:53:59.657Z,3.70
2022-11-03T00:56:37.492Z,3.57
2022-11-03T00:59:06.025Z,3.33
2022-11-03T01:01:45.760Z,3.73
2022-11-03T01:04:33.088Z,3.40
2022-11-03T01:07:00.728Z,3.63
2022-11-03T01:09:35.007Z,3.47
2022-11-03T01:12:19.341Z,3.77
2022-11-03T01:14:48.653Z,3.47
2022-11-03T01:17:18.687Z,3.27
2022-11-03T01:19:45.852Z,3.70
2022-11-03T01:22:13.861Z,3.40
2022-11-03T01:24:41.856Z,3.40
2022-11-03T01:27:17.383Z,3.20
2022-11-03T01:29:44.572Z,3.50
2022-11-03T01:32:11.666Z,3.10
2022-11-03T01:34:38.772Z,3.50
2022-11-03T01:37:05.880Z,3.50
2022-11-03T01:39:32.741Z,3.60
2022-11-03T01:41:59.564Z,3.40
2022-11-03T01:44:29.604Z,3.00
2022-11-03T01:47:12.523Z,2.97
2022-11-03T01:49:47.566Z,2.87
2022-11-03T01:52:36.127Z,3.07
2022-11-03T01:55:08.799Z,2.93
2022-11-03T01:57:47.932Z,2.73
2022-11-03T02:00:14.862Z,3.07
2022-11-03T02:02:43.463Z,2.97
2022-11-03T02:05:12.766Z,2.70
2022-11-03T02:07:46.956Z,3.10
2022-11-03T02:10:13.743Z,3.00
2022-11-03T02:12:41.285Z,2.63
2022-11-03T02:15:14.756Z,2.90
2022-11-03T02:17:44.365Z,3.00
2022-11-03T02:20:19.026Z,2.90
2022-11-03T02:23:07.603Z,2.83
2022-11-03T02:25:41.568Z,3.13
2022-11-03T02:28:08.559Z,2.90
2022-11-03T02:30:42.600Z,2.73
2022-11-03T02:33:28.023Z,3.37
2022-11-03T02:36:06.575Z,3.00
2022-11-03T02:38:38.371Z,2.63
2022-11-03T02:41:08.214Z,2.67
2022-11-03T02:43:35.461Z,3.00
2022-11-03T02:46:04.871Z,2.90
2022-11-03T02:48:32.146Z,2.90
2022-11-03T02:50:58.651Z,2.90
2022-11-03T02:53:29.715Z,2.80
2022-11-03T02:56:07.671Z,3.00
2022-11-03T02:58:53.463Z,3.03
2022-11-03T03:01:24.517Z,3.07
2022-11-03T03:03:58.682Z,2.67
2022-11-03T03:06:48.993Z,2.60
2022-11-03T03:09:23.428Z,2.70
2022-11-03T03:11:53.278Z,2.67
2022-11-03T03:14:41.838Z,2.97
2022-11-03T03:17:22.912Z,2.97
2022-11-03T03:19:56.160Z,3.67
2022-11-03T03:23:00.645Z,2.53
2022-11-03T03:25:35.172Z,3.10
2022-11-03T03:28:08.663Z,2.80
2022-11-03T03:30:36.448Z,3.00
2022-11-03T03:33:07.652Z,2.70
2022-11-03T03:35:39.057Z,2.90
2022-11-03T03:38:11.007Z,3.20
2022-11-03T03:40:41.310Z,3.00
2022-11-03T03:43:11.910Z,2.87
2022-11-03T03:45:39.019Z,2.50
2022-11-03T03:48:07.342Z,3.00
2022-11-03T03:50:38.381Z,2.80
2022-11-03T03:53:07.499Z,3.07
2022-11-03T03:55:37.367Z,2.60
2022-11-03T03:58:05.316Z,2.63
2022-11-03T04:00:32.814Z,2.57
2022-11-03T04:02:59.789Z,2.60
2022-11-03T04:05:26.933Z,2.93
2022-11-03T04:07:53.628Z,2.60
2022-11-03T04:10:23.004Z,2.60
2022-11-03T04:13:08.802Z,2.83
2022-11-03T04:15:51.515Z,2.40
2022-11-03T04:18:41.425Z,2.40
2022-11-03T04:21:30.933Z,2.40
2022-11-03T04:23:57.747Z,2.70
2022-11-03T04:26:24.395Z,3.10
2022-11-03T04:28:52.916Z,2.57
2022-11-03T04:31:21.267Z,2.53
2022-11-03T04:33:48.459Z,2.60
2022-11-03T04:36:25.928Z,2.37
2022-11-03T04:38:53.015Z,2.70
2022-11-03T04:41:32.059Z,2.97
2022-11-03T04:43:59.038Z,2.77
2022-11-03T04:46:28.290Z,2.70
2022-11-03T04:48:59.404Z,2.20
2022-11-03T04:51:29.839Z,2.80
2022-11-03T04:54:01.571Z,2.80
2022-11-03T04:56:28.415Z,2.37
2022-11-03T04:58:55.120Z,2.40
2022-11-03T05:01:24.735Z,2.23
2022-11-03T05:03:54.047Z,2.90
2022-11-03T05:06:28.602Z,2.63
2022-11-03T05:09:24.590Z,2.70
2022-11-03T05:11:51.231Z,2.63
2022-11-03T05:14:24.616Z,2.70
2022-11-03T05:16:53.786Z,2.27
2022-11-03T05:20:01.794Z,2.80
2022-11-03T05:22:33.998Z,2.43
2022-11-03T05:25:46.734Z,2.23
2022-11-03T05:28:39.887Z,2.60
2022-11-03T05:31:23.987Z,2.70
2022-11-03T05:33:52.364Z,2.53
2022-11-03T05:36:24.587Z,2.57
2022-11-03T05:38:58.578Z,2.47
2022-11-03T05:41:27.526Z,2.57
2022-11-03T05:44:22.150Z,2.50
2022-11-03T05:46:48.752Z,2.80
2022-11-03T05:49:15.323Z,2.40
2022-11-03T05:51:44.253Z,2.37
2022-11-03T05:54:22.581Z,2.60
2022-11-03T05:56:49.741Z,2.43
2022-11-03T05:59:22.514Z,2.43
2022-11-03T06:01:49.933Z,3.03
2022-11-03T06:04:26.572Z,2.70
2022-11-03T06:06:59.220Z,2.50
2022-11-03T06:09:27.210Z,2.13
2022-11-03T06:11:58.850Z,2.47
2022-11-03T06:14:28.360Z,2.60
2022-11-03T06:16:59.076Z,2.90
2022-11-03T06:19:31.453Z,4.97
2022-11-03T06:22:24.874Z,3.03
2022-11-03T06:24:55.925Z,3.20
2022-11-03T06:27:24.379Z,3.10
2022-11-03T06:29:56.471Z,2.70
2022-11-03T06:32:23.622Z,3.23
2022-11-03T06:34:56.177Z,3.60
2022-11-03T06:37:30.966Z,3.03
2022-11-03T06:40:20.493Z,2.97
2022-11-03T06:42:47.191Z,2.60
2022-11-03T06:45:21.352Z,2.40
2022-11-03T06:47:49.061Z,2.90
2022-11-03T06:50:29.548Z,2.70
2022-11-03T06:52:58.516Z,2.70
2022-11-03T06:55:31.864Z,2.30
2022-11-03T06:58:17.678Z,2.40
2022-11-03T07:00:48.982Z,2.73
2022-11-03T07:03:30.681Z,2.40
2022-11-03T07:05:59.184Z,2.40
2022-11-03T07:08:29.852Z,2.40
2022-11-03T07:11:11.268Z,2.47
2022-11-03T07:13:37.966Z,2.37
2022-11-03T07:16:16.170Z,2.57
2022-11-03T07:18:47.766Z,2.67
2022-11-03T07:21:31.611Z,2.27
2022-11-03T07:24:00.727Z,2.50
2022-11-03T07:26:28.676Z,3.40
2022-11-03T07:28:55.595Z,3.10
2022-11-03T07:31:26.618Z,3.83
2022-11-03T07:33:58.888Z,3.00
2022-11-03T07:36:29.317Z,3.00
2022-11-03T07:38:59.692Z,2.50
2022-11-03T07:41:34.219Z,2.30
2022-11-03T07:44:02.199Z,2.50
2022-11-03T07:46:29.703Z,2.50
2022-11-03T07:49:02.676Z,2.90
2022-11-03T07:51:32.484Z,2.50
2022-11-03T07:54:08.195Z,3.03
2022-11-03T07:56:56.400Z,2.93
2022-11-03T07:59:30.915Z,2.73
2022-11-03T08:01:59.023Z,2.33
2022-11-03T08:04:29.222Z,2.70
2022-11-03T08:06:56.062Z,2.50
2022-11-03T08:09:22.750Z,2.53
2022-11-03T08:11:53.344Z,2.57
2022-11-03T08:14:20.449Z,2.50
2022-11-03T08:16:47.265Z,2.20
2022-11-03T08:19:14.225Z,2.20
2022-11-03T08:21:40.645Z,2.60
2022-11-03T08:24:07.504Z,2.60
2022-11-03T08:26:34.885Z,2.70
2022-11-03T08:29:01.620Z,3.10
2022-11-03T08:31:28.176Z,2.70
2022-11-03T08:33:55.125Z,2.63
2022-11-03T08:36:21.980Z,3.00
2022-11-03T08:38:48.551Z,2.67
2022-11-03T08:41:15.001Z,2.80
2022-11-03T08:43:41.678Z,2.47
2022-11-03T08:46:17.236Z,2.33
2022-11-03T08:48:45.666Z,2.60
2022-11-03T08:51:14.288Z,2.23
2022-11-03T08:53:42.996Z,2.00
2022-11-03T08:56:12.638Z,2.40
2022-11-03T08:58:44.910Z,2.47
2022-11-03T09:01:13.545Z,2.33
2022-11-03T09:03:40.869Z,2.57
2022-11-03T09:06:07.972Z,2.40
2022-11-03T09:11:21.528Z,2.80
2022-11-03T09:13:48.005Z,3.00
2022-11-03T09:16:14.483Z,3.23
2022-11-03T09:18:41.116Z,3.20
2022-11-03T09:21:09.032Z,3.03
2022-11-03T09:23:35.503Z,2.63
2022-11-03T09:26:02.293Z,2.70
2022-11-03T09:28:28.973Z,2.20
2022-11-03T09:30:55.453Z,2.00
2022-11-03T09:33:22.158Z,2.40
2022-11-03T09:35:48.635Z,2.60
2022-11-03T09:38:15.189Z,2.20
2022-11-03T09:40:41.877Z,2.10
2022-11-03T09:43:09.346Z,2.40
2022-11-03T09:45:36.502Z,2.27
2022-11-03T09:48:03.464Z,2.00
2022-11-03T09:50:31.905Z,2.07
2022-11-03T09:52:59.107Z,1.97
2022-11-03T09:55:27.457Z,1.80
2022-11-03T09:58:14.983Z,2.07
2022-11-03T10:00:41.860Z,2.13
2022-11-03T10:03:12.400Z,1.80
2022-11-03T10:05:39.921Z,2.03
2022-11-03T10:08:18.400Z,2.13
2022-11-03T10:10:49.770Z,2.20
2022-11-03T10:13:24.222Z,2.37
2022-11-03T10:15:52.955Z,2.53
2022-11-03T10:18:21.018Z,2.60
2022-11-03T10:20:47.521Z,2.20
2022-11-03T10:23:14.151Z,2.90
2022-11-03T10:25:42.924Z,2.30
2022-11-03T10:28:15.595Z,2.10
2022-11-03T10:31:09.922Z,2.90
2022-11-03T10:33:41.894Z,3.00
2022-11-03T10:36:17.649Z,2.40
2022-11-03T10:38:45.158Z,2.10
2022-11-03T10:41:33.052Z,2.13
2022-11-03T10:44:05.812Z,2.10
2022-11-03T10:46:49.724Z,1.60
2022-11-03T10:49:20.776Z,3.10
2022-11-03T10:51:50.135Z,2.07
2022-11-03T10:54:20.045Z,2.23
2022-11-03T10:56:48.336Z,1.90
2022-11-03T10:59:19.338Z,1.90
2022-11-03T11:01:46.695Z,1.50
2022-11-03T11:04:17.116Z,1.80
2022-11-03T11:06:44.710Z,1.70
2022-11-03T11:09:14.495Z,1.80
2022-11-03T11:11:59.159Z,2.17
2022-11-03T11:14:25.923Z,1.60
2022-11-03T11:16:54.927Z,2.20
2022-11-03T11:19:23.503Z,2.00
2022-11-03T11:21:58.902Z,1.80
2022-11-03T11:24:44.103Z,1.70
2022-11-03T11:27:47.212Z,1.70
2022-11-03T11:30:19.954Z,1.77
2022-11-03T11:32:47.167Z,1.80
2022-11-03T11:35:23.198Z,1.90
2022-11-03T11:37:49.945Z,1.57
2022-11-03T11:40:26.359Z,1.40
2022-11-03T11:43:13.488Z,1.70
2022-11-03T11:46:17.761Z,1.80
2022-11-03T11:48:44.291Z,1.90
2022-11-03T11:51:12.379Z,1.63
2022-11-03T11:53:41.157Z,1.65
2022-11-03T11:56:13.542Z,1.77
2022-11-03T11:58:43.196Z,1.80
2022-11-03T12:01:33.432Z,1.80
2022-11-03T12:04:08.149Z,1.60
2022-11-03T12:06:37.604Z,1.90
2022-11-03T12:09:29.001Z,1.80
2022-11-03T12:12:07.119Z,1.88
2022-11-03T12:14:36.144Z,2.10
2022-11-03T12:17:17.954Z,1.80
2022-11-03T12:19:50.868Z,1.83
2022-11-03T12:22:23.916Z,2.50
2022-11-03T12:24:54.858Z,2.10
2022-11-03T12:27:24.702Z,1.80
2022-11-03T12:29:56.804Z,1.80
2022-11-03T12:32:33.899Z,1.90
2022-11-03T12:35:02.761Z,2.00
2022-11-03T12:37:29.408Z,1.60
2022-11-03T12:39:55.928Z,2.08
2022-11-03T12:42:25.016Z,2.13
2022-11-03T12:44:52.207Z,1.80
2022-11-03T12:47:20.108Z,1.55
2022-11-03T12:49:47.003Z,1.83
2022-11-03T12:52:13.483Z,1.90
2022-11-03T12:54:40.793Z,1.70
2022-11-03T12:57:07.312Z,1.83
2022-11-03T12:59:33.881Z,1.63
2022-11-03T13:02:00.522Z,1.70
2022-11-03T13:04:27.092Z,2.15
2022-11-03T13:06:53.584Z,1.80
2022-11-03T13:09:20.168Z,1.77
2022-11-03T13:12:22.085Z,1.60
2022-11-03T13:14:48.901Z,1.90
2022-11-03T13:17:19.564Z,2.53
2022-11-03T13:19:47.211Z,1.88
2022-11-03T13:22:13.674Z,1.90
2022-11-03T13:24:40.397Z,1.77
2022-11-03T13:27:07.104Z,2.00
2022-11-03T13:29:35.909Z,2.20
2022-11-03T13:32:06.456Z,2.33
2022-11-03T13:34:33.137Z,2.10
2022-11-03T13:37:00.125Z,1.85
2022-11-03T13:39:26.710Z,1.80
2022-11-03T13:41:53.407Z,1.88
2022-11-03T13:44:20.094Z,1.80
2022-11-03T13:46:46.680Z,1.70
2022-11-03T13:51:59.836Z,1.80
2022-11-03T14:00:03.744Z,1.87
2022-11-03T14:05:25.746Z,1.83
2022-11-03T14:07:52.446Z,1.80
2022-11-03T14:10:18.981Z,1.80
2022-11-03T14:12:45.542Z,1.90
2022-11-03T14:15:13.090Z,2.00
2022-11-03T14:17:40.637Z,1.90
2022-11-03T14:20:10.629Z,2.03
2022-11-03T14:22:37.305Z,1.88
2022-11-03T14:25:04.791Z,2.77
2022-11-03T14:27:31.628Z,2.60
2022-11-03T14:29:58.315Z,2.00
2022-11-03T14:32:24.993Z,2.10
2022-11-03T14:34:51.548Z,1.73
2022-11-03T14:37:18.186Z,2.10
2022-11-03T14:39:45.810Z,2.00
2022-11-03T14:42:17.934Z,2.77
2022-11-03T14:44:47.902Z,3.88
2022-11-03T14:47:21.525Z,2.60
2022-11-03T14:49:48.825Z,2.40
2022-11-03T14:52:16.786Z,2.63
2022-11-03T14:54:44.265Z,2.00
2022-11-03T14:57:10.885Z,3.10
2022-11-03T14:59:37.522Z,3.70
2022-11-03T15:02:04.856Z,2.90
2022-11-03T15:04:33.236Z,2.50
2022-11-03T15:07:00.889Z,2.53
2022-11-03T15:09:27.672Z,3.17
2022-11-03T15:11:54.179Z,2.90
2022-11-03T15:14:20.844Z,2.47
2022-11-03T15:16:48.255Z,2.07
2022-11-03T15:19:14.936Z,2.43
2022-11-03T15:21:41.527Z,2.70
2022-11-03T15:26:57.935Z,2.43
2022-11-03T15:29:24.531Z,2.00
2022-11-03T15:31:51.156Z,2.00
2022-11-03T15:34:18.123Z,1.73
2022-11-03T15:36:45.350Z,2.83
2022-11-03T15:39:13.457Z,3.33
2022-11-03T15:41:40.138Z,2.00
2022-11-03T15:44:06.617Z,2.10
2022-11-03T15:46:33.135Z,1.80
2022-11-03T15:49:01.174Z,1.90
2022-11-03T15:51:27.908Z,2.50
2022-11-03T15:53:58.413Z,2.58
2022-11-03T15:56:29.594Z,4.03
2022-11-03T15:58:58.137Z,4.38
2022-11-03T16:01:25.208Z,7.00
2022-11-03T16:03:52.047Z,5.90
2022-11-03T16:06:18.706Z,3.97
2022-11-03T16:08:45.468Z,6.20
2022-11-03T16:11:12.200Z,3.08
2022-11-03T16:13:39.537Z,4.85
2022-11-03T16:16:06.846Z,3.13
2022-11-03T16:18:33.381Z,4.03
2022-11-03T16:21:00.562Z,6.00
2022-11-03T16:23:27.354Z,4.50
2022-11-03T16:25:54.315Z,3.85
2022-11-03T16:28:20.937Z,5.10
2022-11-03T16:30:53.871Z,4.17
2022-11-03T16:33:21.038Z,4.63
2022-11-03T16:35:47.629Z,5.53
2022-11-03T16:38:15.432Z,28.83
2022-11-03T16:40:42.631Z,13.27
2022-11-03T16:43:09.432Z,4.97
2022-11-03T16:45:37.968Z,2.40
2022-11-03T16:48:06.138Z,2.40
2022-11-03T16:50:34.269Z,2.30
2022-11-03T16:53:01.069Z,7.47
2022-11-03T16:55:29.092Z,5.63
2022-11-03T16:57:55.668Z,8.40
2022-11-03T17:00:24.240Z,11.40
2022-11-03T17:02:51.213Z,7.10
2022-11-03T17:05:19.840Z,5.00
2022-11-03T17:07:52.840Z,3.40
2022-11-03T17:10:20.562Z,3.93
2022-11-03T17:12:47.476Z,6.77
2022-11-03T17:15:17.214Z,7.23
2022-11-03T17:17:43.860Z,5.60
2022-11-03T17:20:11.943Z,7.03
2022-11-03T17:22:38.498Z,5.73
2022-11-03T17:25:06.638Z,4.80
2022-11-03T17:27:42.165Z,4.07
2022-11-03T17:30:16.609Z,4.70
2022-11-03T17:32:43.896Z,2.67
2022-11-03T17:35:19.130Z,3.00
2022-11-03T17:37:46.144Z,2.83
2022-11-03T17:40:21.925Z,2.80
2022-11-03T17:42:50.019Z,2.80
2022-11-03T17:45:19.292Z,3.07
2022-11-03T17:47:45.892Z,2.70
2022-11-03T17:50:20.968Z,2.80
2022-11-03T17:52:49.500Z,3.47
2022-11-03T17:55:15.954Z,3.10
2022-11-03T17:57:42.768Z,4.10
2022-11-03T18:00:15.578Z,5.23
2022-11-03T18:02:43.128Z,3.77
2022-11-03T18:05:28.894Z,4.03
2022-11-03T18:07:56.769Z,3.93
2022-11-03T18:10:34.411Z,3.77
2022-11-03T18:13:17.647Z,5.43
2022-11-03T18:16:07.764Z,3.60
2022-11-03T18:18:37.834Z,3.40
2022-11-03T18:21:04.860Z,3.80
2022-11-03T18:23:33.114Z,4.07
2022-11-03T18:26:18.062Z,3.93
2022-11-03T18:28:45.011Z,3.00
2022-11-03T18:31:19.399Z,8.53
2022-11-03T18:33:46.293Z,6.67
2022-11-03T18:36:14.714Z,7.63
2022-11-03T18:38:43.615Z,5.90
2022-11-03T18:41:36.268Z,5.50
2022-11-03T18:44:12.028Z,5.33
2022-11-03T18:46:38.610Z,4.07
2022-11-03T18:49:05.531Z,5.23
2022-11-03T18:51:32.490Z,3.97
2022-11-03T18:53:59.506Z,4.50
2022-11-03T18:56:27.308Z,5.17
2022-11-03T18:58:57.824Z,6.07
2022-11-03T19:01:27.341Z,4.70
2022-11-03T19:03:54.617Z,5.83
2022-11-03T19:06:21.392Z,6.33
2022-11-03T19:08:48.690Z,4.43
2022-11-03T19:11:15.276Z,5.20
2022-11-03T19:13:47.325Z,4.47
2022-11-03T19:16:16.864Z,4.80
2022-11-03T19:18:44.706Z,7.53
2022-11-03T19:21:16.325Z,7.83
2022-11-03T19:23:47.731Z,7.83
2022-11-03T19:26:31.141Z,7.13
2022-11-03T19:29:01.971Z,8.93
2022-11-03T19:31:33.964Z,6.77
2022-11-03T19:34:00.950Z,9.63
2022-11-03T19:36:28.630Z,9.20
2022-11-03T19:38:55.073Z,8.33
2022-11-03T19:41:40.057Z,7.50
2022-11-03T19:44:11.378Z,7.10
2022-11-03T19:46:39.463Z,5.60
2022-11-03T19:49:07.026Z,5.17
2022-11-03T19:51:38.613Z,5.90
2022-11-03T19:54:15.367Z,5.27
2022-11-03T19:56:41.979Z,6.37
2022-11-03T19:59:12.941Z,7.13
2022-11-03T20:01:39.867Z,6.93
2022-11-03T20:04:06.805Z,7.37
2022-11-03T20:06:34.982Z,7.17
2022-11-03T20:09:06.210Z,7.20
2022-11-03T20:11:33.735Z,6.03
2022-11-03T20:14:02.611Z,6.07
2022-11-03T20:16:31.064Z,6.97
2022-11-03T20:18:57.872Z,6.27
2022-11-03T20:21:27.769Z,7.00
2022-11-03T20:23:58.243Z,6.47
2022-11-03T20:26:25.290Z,5.63
2022-11-03T20:28:56.105Z,5.43
2022-11-03T20:31:22.685Z,5.33
2022-11-03T20:33:49.285Z,5.20
2022-11-03T20:36:18.607Z,5.57
2022-11-03T20:38:55.627Z,5.70
2022-11-03T20:41:22.079Z,4.30
2022-11-03T20:43:49.601Z,4.63
2022-11-03T20:46:23.693Z,3.90
2022-11-03T20:48:50.627Z,4.03
2022-11-03T20:51:19.593Z,3.40
2022-11-03T20:53:47.720Z,3.97
2022-11-03T20:56:25.979Z,3.70
2022-11-03T20:58:53.213Z,3.17
2022-11-03T21:01:25.712Z,3.27
2022-11-03T21:03:59.400Z,3.53
2022-11-03T21:06:28.562Z,3.30
2022-11-03T21:08:55.339Z,3.17
2022-11-03T21:11:27.916Z,3.17
2022-11-03T21:13:56.158Z,3.40
2022-11-03T21:16:42.560Z,3.63
2022-11-03T21:19:35.594Z,4.30
2022-11-03T21:22:02.200Z,9.23
2022-11-03T21:24:28.677Z,3.90
2022-11-03T21:26:55.210Z,3.50
2022-11-03T21:29:38.938Z,3.30
2022-11-03T21:32:12.257Z,3.20
2022-11-03T21:34:39.366Z,3.00
2022-11-03T21:37:06.615Z,3.53
2022-11-03T21:39:33.493Z,4.17
2022-11-03T21:42:18.791Z,3.57
2022-11-03T21:44:45.262Z,3.37
2022-11-03T21:47:12.012Z,3.10
2022-11-03T21:49:44.406Z,4.00
2022-11-03T21:52:15.245Z,3.80
2022-11-03T21:54:42.619Z,3.50
2022-11-03T21:57:11.168Z,3.40
2022-11-03T21:59:37.961Z,3.07
2022-11-03T22:02:05.179Z,3.33
2022-11-03T22:04:31.737Z,2.90
2022-11-03T22:06:59.512Z,3.07
2022-11-03T22:09:27.474Z,2.60
2022-11-03T22:11:54.116Z,3.00
2022-11-03T22:14:20.758Z,2.57
2022-11-03T22:16:47.579Z,2.67
2022-11-03T22:19:40.412Z,2.50
2022-11-03T22:22:33.394Z,2.50
2022-11-03T22:25:19.057Z,2.50
2022-11-03T22:27:45.479Z,2.00
2022-11-03T22:30:30.436Z,1.80
2022-11-03T22:32:57.930Z,1.80
2022-11-03T22:35:43.937Z,2.30
2022-11-03T22:38:15.640Z,1.43
2022-11-03T22:41:04.242Z,1.80
2022-11-03T22:43:49.638Z,1.57
2022-11-03T22:46:17.300Z,1.70
2022-11-03T22:48:44.310Z,1.33
2022-11-03T22:51:16.653Z,1.50
2022-11-03T22:54:02.456Z,1.47
2022-11-03T22:56:30.171Z,1.43
2022-11-03T22:58:57.090Z,1.57
2022-11-03T23:01:26.632Z,1.27
2022-11-03T23:03:53.894Z,1.30
2022-11-03T23:06:28.784Z,1.70
2022-11-03T23:08:56.875Z,1.20
2022-11-03T23:11:26.069Z,1.33
2022-11-03T23:13:54.571Z,1.23
2022-11-03T23:16:25.722Z,1.20
2022-11-03T23:19:10.949Z,1.13
2022-11-03T23:21:37.742Z,1.20
2022-11-03T23:24:23.520Z,1.30
2022-11-03T23:26:50.487Z,1.20
2022-11-03T23:29:17.431Z,1.30
2022-11-03T23:31:45.064Z,1.13
2022-11-03T23:34:12.679Z,1.20
2022-11-03T23:36:39.590Z,1.30
2022-11-03T23:39:06.332Z,1.20
2022-11-03T23:41:33.081Z,0.80
2022-11-03T23:43:59.591Z,1.10
2022-11-03T23:46:47.561Z,0.90
2022-11-03T23:49:14.974Z,0.60
2022-11-03T23:51:44.563Z,0.90
2022-11-03T23:54:11.832Z,0.80
2022-11-03T23:57:02.048Z,0.87
2022-11-03T23:59:30.145Z,0.90
